Time;durP1;ratioP1;P1;durP2;ratioP2;P2;SDS_P1;SDS_P2;PMS_P1;PMS_P2;Temp;Humidity;BMP_temperature;BMP_pressure;BME280_temperature;BME280_humidity;BME280_pressure;Samples;Min_cycle;Max_cycle;Signal;HPM_P1;HPM_P2
2024/04/08 00:01:10;;;;;;;535.13;142.20;;;23.90;29.10;;;;;;4999029;28;20057;-63
2024/04/08 00:03:37;;;;;;;538.40;140.45;;;23.90;29.10;;;;;;5013648;28;20065;-65
2024/04/08 00:06:05;;;;;;;567.75;151.60;;;23.80;29.00;;;;;;5007942;28;20046;-64
2024/04/08 00:08:32;;;;;;;543.38;140.07;;;23.70;29.60;;;;;;5006581;28;20061;-64
2024/04/08 00:11:07;;;;;;;653.08;174.77;;;23.60;29.10;;;;;;5002470;28;20065;-64
2024/04/08 00:13:37;;;;;;;527.75;134.30;;;23.50;29.10;;;;;;5013725;28;20061;-64
2024/04/08 00:16:05;;;;;;;535.15;134.93;;;23.50;29.10;;;;;;5004577;28;20168;-63
2024/04/08 00:18:32;;;;;;;524.33;132.70;;;23.40;29.20;;;;;;5000958;28;20054;-64
2024/04/08 00:21:03;;;;;;;546.22;138.18;;;23.30;29.20;;;;;;5005472;28;20089;-64
2024/04/08 00:23:30;;;;;;;512.08;130.15;;;23.30;29.20;;;;;;5004304;28;20108;-64
2024/04/08 00:26:02;;;;;;;519.90;129.90;;;23.20;29.20;;;;;;5013979;28;20053;-64
2024/04/08 00:28:30;;;;;;;536.33;132.93;;;23.10;29.20;;;;;;5007052;28;20060;-64
2024/04/08 00:31:02;;;;;;;524.42;129.82;;;23.00;29.30;;;;;;5011469;28;20136;-64
2024/04/08 00:33:28;;;;;;;531.72;131.68;;;22.90;29.30;;;;;;5004333;28;20124;-63
2024/04/08 00:35:55;;;;;;;542.55;134.05;;;22.90;29.30;;;;;;4996988;28;20053;-64
2024/04/08 00:38:22;;;;;;;731.40;210.85;;;22.80;29.40;;;;;;5006934;28;20057;-64
2024/04/08 00:40:49;;;;;;;540.55;132.88;;;22.80;29.50;;;;;;5013003;28;20042;-64
2024/04/08 00:43:16;;;;;;;542.15;134.07;;;22.80;29.40;;;;;;5010893;28;20050;-65
2024/04/08 00:45:48;;;;;;;531.08;129.18;;;22.70;29.40;;;;;;5007290;28;20058;-65
2024/04/08 00:48:15;;;;;;;726.78;209.20;;;22.60;29.50;;;;;;5005624;28;20058;-65
2024/04/08 00:50:46;;;;;;;545.67;131.60;;;22.60;29.50;;;;;;5014526;28;20112;-64
2024/04/08 00:53:13;;;;;;;560.05;135.25;;;22.50;29.50;;;;;;5011281;28;20050;-65
2024/04/08 00:55:42;;;;;;;529.97;127.85;;;22.50;29.60;;;;;;5016177;28;20538;-64
2024/04/08 00:58:08;;;;;;;650.83;168.93;;;22.40;29.60;;;;;;5008457;28;20060;-63
2024/04/08 01:00:37;;;;;;;515.75;124.82;;;22.40;29.70;;;;;;5010790;28;20054;-64
2024/04/08 01:03:05;;;;;;;561.30;134.57;;;22.40;29.80;;;;;;5013114;28;20516;-63
2024/04/08 01:05:35;;;;;;;527.28;126.88;;;22.40;29.80;;;;;;5003798;28;20053;-64
2024/04/08 01:08:01;;;;;;;524.72;128.25;;;22.40;29.80;;;;;;4989970;28;20049;-65
2024/04/08 01:10:29;;;;;;;542.95;135.48;;;22.50;29.90;;;;;;5010831;28;20927;-65
2024/04/08 01:12:56;;;;;;;558.90;139.32;;;22.60;29.90;;;;;;5008700;28;20115;-64
2024/04/08 01:15:24;;;;;;;533.15;128.43;;;22.70;29.90;;;;;;5010644;28;20053;-66
2024/04/08 01:17:52;;;;;;;524.72;128.73;;;22.70;29.80;;;;;;5010191;28;20531;-65
2024/04/08 01:20:21;;;;;;;707.15;206.40;;;22.80;29.70;;;;;;5006249;28;20561;-65
2024/04/08 01:22:53;;;;;;;536.08;132.63;;;22.90;29.70;;;;;;5010141;28;20094;-64
2024/04/08 01:25:21;;;;;;;520.60;128.30;;;22.90;29.60;;;;;;5011723;28;20060;-65
2024/04/08 01:27:48;;;;;;;528.47;130.10;;;22.90;29.60;;;;;;5007186;28;20053;-64
2024/04/08 01:30:21;;;;;;;696.83;194.90;;;22.90;29.70;;;;;;5005984;28;20054;-65
2024/04/08 01:32:48;;;;;;;524.03;129.25;;;22.90;29.70;;;;;;5005560;28;20046;-63
2024/04/08 01:35:16;;;;;;;511.65;126.15;;;22.90;29.70;;;;;;5008310;28;20060;-65
2024/04/08 01:38:54;;;;;;;522.80;125.53;;;22.90;29.70;;;;;;5415570;25;21079;-64
2024/04/08 01:41:21;;;;;;;536.20;134.90;;;23.00;29.70;;;;;;5403677;25;20014;-63
2024/04/08 01:43:52;;;;;;;513.63;125.80;;;23.00;29.70;;;;;;5406034;26;20062;-64
2024/04/08 01:46:20;;;;;;;726.53;212.02;;;23.00;29.60;;;;;;5383786;26;20015;-65
2024/04/08 01:48:50;;;;;;;545.22;136.00;;;23.00;29.60;;;;;;5409350;26;20007;-64
2024/04/08 01:51:18;;;;;;;521.97;129.20;;;23.00;29.60;;;;;;5408350;25;20003;-64
2024/04/08 01:53:48;;;;;;;560.20;142.40;;;23.10;29.70;;;;;;5410120;26;20035;-65
2024/04/08 01:56:18;;;;;;;669.50;189.93;;;23.20;29.80;;;;;;5403923;25;20007;-65
2024/04/08 01:58:48;;;;;;;525.83;133.80;;;23.30;29.70;;;;;;5401212;25;20007;-64
2024/04/08 02:01:18;;;;;;;524.42;132.10;;;23.30;29.60;;;;;;5391755;25;21556;-64
2024/04/08 02:03:46;;;;;;;534.38;135.55;;;23.40;29.60;;;;;;5358345;26;20303;-65
2024/04/08 02:06:16;;;;;;;691.72;200.20;;;23.40;29.50;;;;;;5352002;26;20064;-64
2024/04/08 02:08:44;;;;;;;567.60;145.88;;;23.50;29.50;;;;;;5366950;26;20386;-64
2024/04/08 02:11:14;;;;;;;517.83;131.35;;;23.50;29.40;;;;;;5360175;26;20005;-65
2024/04/08 02:13:44;;;;;;;560.85;155.20;;;23.50;29.40;;;;;;5361642;26;20044;-64
2024/04/08 02:16:14;;;;;;;702.05;203.45;;;23.50;29.40;;;;;;5350157;26;20005;-65
2024/04/08 02:18:43;;;;;;;525.97;132.75;;;23.40;29.30;;;;;;5359302;26;20001;-64
2024/04/08 02:21:14;;;;;;;557.42;142.43;;;23.40;29.30;;;;;;5363525;26;20067;-63
2024/04/08 02:23:42;;;;;;;542.25;137.70;;;23.30;29.30;;;;;;5360948;26;20026;-63
2024/04/08 02:26:12;;;;;;;666.45;179.02;;;23.30;29.40;;;;;;5355137;26;20051;-64
2024/04/08 02:28:40;;;;;;;566.03;147.50;;;23.20;29.40;;;;;;5352253;26;20004;-65
2024/04/08 02:31:12;;;;;;;514.25;128.48;;;23.20;29.40;;;;;;5373118;26;20004;-64
2024/04/08 02:33:40;;;;;;;536.83;138.93;;;23.20;29.50;;;;;;5370368;26;20026;-63
2024/04/08 02:36:10;;;;;;;589.35;154.38;;;23.20;29.50;;;;;;5360469;26;20012;-64
2024/04/08 02:38:38;;;;;;;551.92;138.07;;;23.10;29.50;;;;;;5354684;26;20000;-65
2024/04/08 02:41:08;;;;;;;516.50;128.68;;;23.10;29.50;;;;;;5363687;26;20844;-67
2024/04/08 02:43:36;;;;;;;513.92;130.20;;;23.10;29.50;;;;;;5367437;26;20019;-64
2024/04/08 02:46:06;;;;;;;539.00;133.82;;;23.00;29.40;;;;;;5365202;26;20054;-64
2024/04/08 02:48:38;;;;;;;579.13;150.32;;;23.00;29.50;;;;;;5362806;26;20071;-65
2024/04/08 02:51:08;;;;;;;522.03;130.57;;;23.00;30.00;;;;;;5343885;26;20090;-64
2024/04/08 02:53:36;;;;;;;557.28;140.32;;;23.00;29.60;;;;;;5375437;26;20004;-64
2024/04/08 02:56:08;;;;;;;532.40;132.57;;;23.00;29.60;;;;;;5318702;26;20017;-62
2024/04/08 02:58:36;;;;;;;522.35;131.88;;;23.00;29.60;;;;;;5321378;26;20486;-65
2024/04/08 03:01:09;;;;;;;525.28;131.48;;;23.00;29.60;;;;;;5330293;26;20546;-66
2024/04/08 03:03:40;;;;;;;538.90;133.48;;;23.00;29.50;;;;;;5307927;26;20028;-65
2024/04/08 03:06:11;;;;;;;574.40;145.93;;;23.10;29.50;;;;;;5317251;26;20005;-63
2024/04/08 03:08:40;;;;;;;588.45;150.30;;;23.10;29.60;;;;;;5311089;26;20020;-64
2024/04/08 03:11:11;;;;;;;538.22;134.43;;;23.20;29.50;;;;;;5311185;26;20009;-63
2024/04/08 03:13:39;;;;;;;524.40;129.80;;;23.10;29.40;;;;;;5314791;26;20020;-65
2024/04/08 03:16:10;;;;;;;553.53;141.93;;;23.10;29.40;;;;;;5308068;26;20049;-64
2024/04/08 03:18:40;;;;;;;548.78;136.75;;;23.10;29.40;;;;;;5323176;26;20440;-63
2024/04/08 03:21:11;;;;;;;577.22;149.10;;;23.10;29.50;;;;;;5319687;26;20009;-64
2024/04/08 03:23:38;;;;;;;530.15;137.20;;;23.10;29.50;;;;;;5306843;26;20459;-63
2024/04/08 03:26:12;;;;;;;661.40;264.88;;;23.10;29.50;;;;;;5306410;26;20012;-65
2024/04/08 03:28:39;;;;;;;565.75;158.27;;;23.10;29.50;;;;;;5320064;26;20319;-66
2024/04/08 03:31:12;;;;;;;556.67;203.98;;;23.10;29.70;;;;;;5319020;26;20065;-64
2024/04/08 03:33:42;;;;;;;523.78;131.40;;;23.10;29.60;;;;;;5324068;26;20035;-64
2024/04/08 03:36:16;;;;;;;681.42;225.50;;;23.20;29.60;;;;;;5320549;26;20078;-64
2024/04/08 03:38:46;;;;;;;557.67;138.88;;;23.20;29.50;;;;;;5324560;26;20091;-65
2024/04/08 03:41:17;;;;;;;617.10;162.27;;;23.30;29.50;;;;;;5314069;26;20084;-63
2024/04/08 03:43:48;;;;;;;527.85;134.88;;;23.30;29.50;;;;;;5321688;26;20032;-63
2024/04/08 03:46:19;;;;;;;712.30;210.93;;;23.40;29.60;;;;;;5308136;26;20020;-62
2024/04/08 03:48:51;;;;;;;530.65;135.40;;;23.40;29.50;;;;;;5318006;26;20079;-64
2024/04/08 03:51:19;;;;;;;543.10;143.93;;;23.50;29.50;;;;;;5314933;26;20012;-65
2024/04/08 03:53:49;;;;;;;572.72;153.95;;;23.50;29.40;;;;;;5316686;26;20131;-63
2024/04/08 03:56:17;;;;;;;711.95;213.98;;;23.60;29.40;;;;;;5296997;26;20479;-64
2024/04/08 03:58:47;;;;;;;594.53;158.15;;;23.60;29.30;;;;;;5303942;26;20479;-64
2024/04/08 04:01:15;;;;;;;572.03;150.27;;;23.60;29.20;;;;;;5310271;26;20363;-64
2024/04/08 04:03:45;;;;;;;529.90;137.40;;;23.60;29.20;;;;;;5311287;26;20009;-66
2024/04/08 04:06:15;;;;;;;753.78;217.40;;;23.70;29.30;;;;;;5301741;26;20522;-64
2024/04/08 04:08:45;;;;;;;520.90;134.98;;;23.60;29.10;;;;;;5315421;26;20004;-65
2024/04/08 04:11:13;;;;;;;533.95;138.77;;;23.60;29.20;;;;;;5304045;26;20025;-64
2024/04/08 04:13:43;;;;;;;547.33;143.18;;;23.70;29.20;;;;;;5321930;26;20009;-62
2024/04/08 04:16:11;;;;;;;707.17;199.98;;;23.70;29.20;;;;;;5308603;26;20075;-64
2024/04/08 04:18:41;;;;;;;595.40;156.35;;;23.70;29.20;;;;;;5312412;26;20020;-64
2024/04/08 04:21:09;;;;;;;554.78;143.07;;;23.70;29.10;;;;;;5312462;26;20064;-65
2024/04/08 04:23:42;;;;;;;541.50;141.00;;;23.70;29.20;;;;;;5312788;26;20494;-63
2024/04/08 04:26:09;;;;;;;739.45;205.90;;;23.70;29.20;;;;;;5310525;26;20016;-65
2024/04/08 04:28:41;;;;;;;546.53;141.13;;;23.70;29.20;;;;;;5315459;26;20407;-64
2024/04/08 04:31:09;;;;;;;550.00;141.70;;;23.70;29.10;;;;;;5310840;26;20132;-64
2024/04/08 04:33:39;;;;;;;543.42;140.75;;;23.70;29.10;;;;;;5302553;26;20002;-64
2024/04/08 04:36:07;;;;;;;568.30;147.38;;;23.70;29.20;;;;;;5303650;26;20116;-63
2024/04/08 04:38:37;;;;;;;537.90;139.82;;;23.80;29.30;;;;;;5304664;26;20017;-65
2024/04/08 04:41:09;;;;;;;549.33;144.65;;;23.80;29.20;;;;;;5314907;26;20017;-64
2024/04/08 04:43:40;;;;;;;547.40;144.10;;;23.90;29.30;;;;;;5311769;26;20028;-64
2024/04/08 04:46:10;;;;;;;608.30;169.88;;;24.00;29.60;;;;;;5306130;26;20044;-64
2024/04/08 04:48:40;;;;;;;580.33;157.45;;;24.10;29.40;;;;;;5273135;26;20091;-67
2024/04/08 04:51:10;;;;;;;578.92;153.00;;;24.20;29.10;;;;;;5301971;26;20009;-67
2024/04/08 04:53:40;;;;;;;566.22;150.80;;;24.20;28.80;;;;;;5304740;26;20016;-69
2024/04/08 04:56:10;;;;;;;660.65;184.80;;;24.20;28.70;;;;;;5293633;26;20032;-67
2024/04/08 04:58:41;;;;;;;576.40;150.32;;;24.10;28.70;;;;;;5303182;26;20079;-68
2024/04/08 05:01:08;;;;;;;544.25;145.38;;;24.00;28.60;;;;;;5307580;26;20079;-68
2024/04/08 05:03:38;;;;;;;568.70;152.57;;;24.00;28.70;;;;;;5307077;26;20064;-64
2024/04/08 05:06:07;;;;;;;580.35;153.20;;;23.90;28.60;;;;;;5303707;26;20028;-64
2024/04/08 05:08:38;;;;;;;585.30;156.25;;;23.90;28.60;;;;;;5305739;26;20012;-61
2024/04/08 05:11:06;;;;;;;586.25;156.52;;;23.90;28.70;;;;;;5307819;26;20533;-64
2024/04/08 05:13:40;;;;;;;555.35;149.45;;;24.00;29.00;;;;;;5334722;26;20017;-58
2024/04/08 05:16:10;;;;;;;681.20;189.25;;;24.10;29.00;;;;;;5294444;26;20026;-69
2024/04/08 05:18:41;;;;;;;585.55;153.10;;;24.30;28.80;;;;;;5306160;26;20057;-67
2024/04/08 05:21:09;;;;;;;584.42;153.65;;;24.20;28.50;;;;;;5302535;26;21292;-67
2024/04/08 05:23:39;;;;;;;557.45;147.65;;;24.20;28.50;;;;;;5358298;26;20087;-67
2024/04/08 05:26:10;;;;;;;689.75;190.35;;;24.00;28.50;;;;;;5295969;26;20009;-66
2024/04/08 05:28:40;;;;;;;580.47;151.30;;;24.00;28.50;;;;;;5305115;26;20024;-71
2024/04/08 05:31:11;;;;;;;570.17;151.25;;;23.90;28.50;;;;;;5300329;26;20056;-70
2024/04/08 05:33:39;;;;;;;575.85;151.10;;;23.90;28.60;;;;;;5302806;26;20168;-67
2024/04/08 05:36:09;;;;;;;568.22;152.90;;;23.90;28.60;;;;;;5305304;26;20072;-66
2024/04/08 05:38:37;;;;;;;554.15;152.93;;;23.90;28.60;;;;;;5311240;26;20013;-65
2024/04/08 05:41:08;;;;;;;640.15;173.27;;;24.00;28.60;;;;;;5306677;26;20108;-65
2024/04/08 05:43:36;;;;;;;586.38;154.05;;;24.00;28.60;;;;;;5306650;26;20036;-70
2024/04/08 05:46:10;;;;;;;615.53;163.35;;;24.20;28.60;;;;;;5308553;26;20560;-67
2024/04/08 05:48:38;;;;;;;551.28;146.98;;;24.20;28.50;;;;;;5289436;26;21289;-68
2024/04/08 05:51:08;;;;;;;580.83;152.05;;;24.30;28.40;;;;;;5292926;26;20013;-67
2024/04/08 05:53:37;;;;;;;564.70;172.32;;;24.40;28.40;;;;;;5307814;26;20001;-69
2024/04/08 05:56:21;;;;;;;581.47;166.23;;;24.50;28.40;;;;;;5302633;26;20031;-68
2024/04/08 05:59:03;;;;;;;576.60;170.52;;;24.50;28.30;;;;;;5331182;26;21302;-70
2024/04/08 06:01:36;;;;;;;;;;;24.60;28.20;;;;;;5296952;26;20086;-69
2024/04/08 06:04:05;;;;;;;549.47;147.05;;;24.70;28.20;;;;;;5304912;26;19957;-65
2024/04/08 06:06:38;;;;;;;564.85;156.13;;;24.70;28.20;;;;;;5300766;26;20043;-68
2024/04/08 06:09:10;;;;;;;589.72;161.18;;;24.80;28.10;;;;;;5307574;26;20016;-68
2024/04/08 06:11:40;;;;;;;581.47;158.82;;;24.90;28.10;;;;;;5303606;26;20075;-68
2024/04/08 06:14:09;;;;;;;759.17;228.60;;;25.00;28.10;;;;;;5325953;26;19997;-65
2024/04/08 06:16:42;;;;;;;567.00;174.20;;;25.10;28.00;;;;;;5311395;26;20649;-67
2024/04/08 06:19:10;;;;;;;552.90;170.50;;;25.20;27.90;;;;;;5307006;26;20013;-70
2024/04/08 06:21:40;;;;;;;572.03;175.35;;;25.20;27.90;;;;;;5296723;26;20016;-71
2024/04/08 06:24:08;;;;;;;644.00;196.68;;;25.40;27.90;;;;;;5297804;26;20008;-70
2024/04/08 06:26:39;;;;;;;589.50;230.75;;;25.50;28.40;;;;;;5305751;26;20019;-66
2024/04/08 06:29:06;;;;;;;577.05;168.50;;;25.60;28.30;;;;;;5310110;26;20097;-69
2024/04/08 06:31:37;;;;;;;607.00;181.43;;;25.70;27.80;;;;;;5310713;26;20009;-68
2024/04/08 06:34:08;;;;;;;578.38;179.57;;;25.70;27.70;;;;;;5306501;26;20296;-74
2024/04/08 06:36:39;;;;;;;573.65;183.63;;;25.90;27.80;;;;;;5314473;26;20020;-72
2024/04/08 06:39:07;;;;;;;560.55;180.80;;;26.00;27.60;;;;;;5337112;26;20024;-68
2024/04/08 06:41:40;;;;;;;597.35;189.23;;;26.10;27.60;;;;;;5304295;26;20013;-69
2024/04/08 06:44:08;;;;;;;667.50;211.15;;;26.30;27.40;;;;;;5304248;26;20139;-66
2024/04/08 06:46:38;;;;;;;572.92;185.45;;;26.40;27.50;;;;;;5310358;26;20017;-68
2024/04/08 06:49:09;;;;;;;595.60;198.50;;;26.40;27.40;;;;;;5308145;26;20841;-69
2024/04/08 06:51:39;;;;;;;587.45;202.85;;;26.60;27.30;;;;;;5307335;26;20100;-65
2024/04/08 06:54:08;;;;;;;641.72;213.68;;;26.60;27.20;;;;;;5305224;26;20036;-69
2024/04/08 06:56:39;;;;;;;590.20;206.10;;;26.80;27.30;;;;;;5310524;26;20020;-68
2024/04/08 06:59:07;;;;;;;598.15;202.45;;;26.90;27.20;;;;;;5310238;26;20016;-68
2024/04/08 07:01:37;;;;;;;674.95;236.77;;;27.00;27.10;;;;;;5304905;26;20040;-66
2024/04/08 07:04:05;;;;;;;589.30;194.82;;;27.10;26.90;;;;;;5309823;26;20031;-65
2024/04/08 07:06:40;;;;;;;581.28;191.70;;;27.20;26.90;;;;;;5287655;26;20045;-66
2024/04/08 07:09:09;;;;;;;708.20;237.40;;;27.30;26.80;;;;;;5291864;26;20017;-65
2024/04/08 07:11:39;;;;;;;601.13;205.77;;;27.60;27.10;;;;;;5296186;26;20241;-71
2024/04/08 07:14:07;;;;;;;625.85;214.68;;;27.70;26.70;;;;;;5287722;26;21707;-64
2024/04/08 07:16:37;;;;;;;601.90;207.18;;;27.80;27.10;;;;;;5298599;26;20037;-67
2024/04/08 07:19:05;;;;;;;592.95;205.60;;;28.00;26.50;;;;;;5303384;26;20027;-66
2024/04/08 07:21:38;;;;;;;596.25;208.75;;;28.20;26.50;;;;;;5308389;26;20126;-67
2024/04/08 07:24:07;;;;;;;600.33;216.02;;;28.30;26.20;;;;;;5296744;26;20012;-66
2024/04/08 07:26:38;;;;;;;584.45;212.15;;;28.60;26.30;;;;;;5301054;26;20049;-67
2024/04/08 07:29:06;;;;;;;597.63;224.90;;;29.00;26.30;;;;;;5292541;26;20039;-67
2024/04/08 07:31:36;;;;;;;636.72;243.80;;;29.60;26.00;;;;;;5307408;26;20075;-70
2024/04/08 07:34:04;;;;;;;589.65;236.82;;;30.10;25.80;;;;;;5304853;26;20111;-69
2024/04/08 07:36:37;;;;;;;597.83;246.00;;;30.60;25.60;;;;;;5301741;26;20002;-71
2024/04/08 07:39:07;;;;;;;632.63;266.73;;;30.90;25.30;;;;;;5298918;26;20089;-69
2024/04/08 07:41:42;;;;;;;603.15;254.55;;;31.30;25.20;;;;;;5302608;26;20015;-69
2024/04/08 07:44:10;;;;;;;728.33;309.77;;;31.60;25.20;;;;;;5301302;26;20013;-68
2024/04/08 07:46:41;;;;;;;620.58;275.08;;;31.90;24.90;;;;;;5303467;26;20019;-66
2024/04/08 07:49:08;;;;;;;582.42;265.52;;;32.30;24.80;;;;;;5303994;26;20013;-67
2024/04/08 07:51:41;;;;;;;630.63;287.58;;;32.60;24.50;;;;;;5300345;26;20029;-64
2024/04/08 07:54:19;;;;;;;687.50;318.92;;;32.90;24.40;;;;;;5303440;26;20013;-64
2024/04/08 07:56:52;;;;;;;597.42;303.23;;;33.40;24.40;;;;;;5309733;26;20410;-70
2024/04/08 07:59:20;;;;;;;643.33;321.65;;;33.90;24.10;;;;;;5331239;26;20032;-63
2024/04/08 08:01:51;;;;;;;608.63;318.52;;;34.30;23.80;;;;;;5305905;26;20489;-63
2024/04/08 08:04:19;;;;;;;752.97;381.85;;;34.50;23.50;;;;;;5290544;26;20024;-65
2024/04/08 08:06:52;;;;;;;607.55;339.48;;;34.90;23.90;;;;;;5308850;26;20001;-65
2024/04/08 08:09:23;;;;;;;621.22;335.17;;;35.40;23.30;;;;;;5308896;26;20999;-65
2024/04/08 08:11:53;;;;;;;612.28;340.30;;;35.70;23.10;;;;;;5335182;26;20889;-67
2024/04/08 08:14:21;;;;;;;767.45;409.50;;;36.20;22.90;;;;;;5302243;26;20417;-69
2024/04/08 08:16:51;;;;;;;597.90;342.10;;;36.30;22.50;;;;;;5312782;26;20049;-69
2024/04/08 08:19:22;;;;;;;661.03;370.70;;;36.40;22.50;;;;;;5309510;26;20021;-70
2024/04/08 08:21:55;;;;;;;604.88;351.25;;;36.60;22.60;;;;;;5314010;26;20080;-71
2024/04/08 08:24:23;;;;;;;789.05;418.67;;;36.40;22.00;;;;;;5299217;26;20012;-69
2024/04/08 08:26:53;;;;;;;614.67;338.52;;;36.00;22.20;;;;;;5313337;26;20099;-71
2024/04/08 08:29:23;;;;;;;602.30;327.17;;;35.30;22.00;;;;;;5302727;26;20092;-71
2024/04/08 08:31:54;;;;;;;630.55;327.90;;;34.70;22.20;;;;;;5305059;26;20478;-70
2024/04/08 08:34:29;;;;;;;609.75;332.25;;;34.50;22.30;;;;;;5299624;26;20001;-71
2024/04/08 08:37:02;;;;;;;611.63;320.13;;;34.40;22.50;;;;;;5306591;26;20031;-72
2024/04/08 08:39:34;;;;;;;590.80;314.45;;;34.40;22.50;;;;;;5313469;26;20013;-67
2024/04/08 08:42:10;;;;;;;579.28;306.30;;;34.40;22.50;;;;;;5306923;26;20443;-69
2024/04/08 08:44:43;;;;;;;613.70;314.08;;;34.30;22.60;;;;;;5308734;26;20077;-69
2024/04/08 08:47:16;;;;;;;588.17;302.15;;;34.40;22.80;;;;;;5308254;26;20021;-67
2024/04/08 08:49:45;;;;;;;599.83;316.67;;;34.60;22.70;;;;;;5298120;26;20012;-65
2024/04/08 08:52:18;;;;;;;750.55;385.75;;;35.00;22.80;;;;;;5288487;26;20692;-66
2024/04/08 08:54:46;;;;;;;595.17;329.20;;;35.60;22.80;;;;;;5304224;26;20033;-67
2024/04/08 08:57:17;;;;;;;591.78;338.83;;;36.00;22.60;;;;;;5310491;26;20027;-67
2024/04/08 08:59:48;;;;;;;642.95;366.33;;;36.40;22.60;;;;;;5305755;26;20880;-66
2024/04/08 09:02:19;;;;;;;764.83;434.67;;;37.10;22.60;;;;;;5294781;26;20111;-66
2024/04/08 09:04:46;;;;;;;624.50;386.60;;;37.90;22.50;;;;;;5304454;26;20009;-65
2024/04/08 09:07:19;;;;;;;653.50;407.98;;;38.70;22.40;;;;;;5300842;26;20000;-66
2024/04/08 09:09:53;;;;;;;606.38;404.95;;;39.30;22.10;;;;;;5305779;26;20016;-65
2024/04/08 09:12:24;;;;;;;807.25;494.27;;;39.80;21.90;;;;;;5295714;26;20014;-65
2024/04/08 09:14:52;;;;;;;620.63;426.05;;;40.20;21.70;;;;;;5301863;26;20028;-67
2024/04/08 09:17:23;;;;;;;665.15;443.13;;;40.30;21.40;;;;;;5304711;26;20005;-69
2024/04/08 09:19:51;;;;;;;605.95;429.17;;;40.30;21.40;;;;;;5297169;26;20019;-68
2024/04/08 09:22:25;;;;;;;773.75;505.92;;;40.50;21.50;;;;;;5284188;26;20000;-63
2024/04/08 09:24:53;;;;;;;614.70;451.05;;;40.90;21.60;;;;;;5306051;26;20009;-64
2024/04/08 09:27:23;;;;;;;651.85;467.77;;;41.50;21.70;;;;;;5301863;26;20004;-65
2024/04/08 09:29:51;;;;;;;661.85;480.02;;;41.90;21.60;;;;;;5296258;26;20077;-62
2024/04/08 09:32:22;;;;;;;768.25;533.70;;;42.50;21.70;;;;;;5296512;26;20009;-67
2024/04/08 09:34:50;;;;;;;624.45;489.98;;;43.20;21.60;;;;;;5298569;26;20013;-65
2024/04/08 09:37:25;;;;;;;621.60;507.75;;;44.20;21.50;;;;;;5302270;26;20033;-67
2024/04/08 09:39:53;;;;;;;669.67;523.70;;;45.10;21.20;;;;;;5296804;26;20022;-67
2024/04/08 09:42:25;;;;;;;810.00;594.85;;;45.30;20.90;;;;;;5294678;26;20041;-61
2024/04/08 09:44:53;;;;;;;655.83;533.55;;;45.50;20.80;;;;;;5302560;26;20802;-62
2024/04/08 09:47:26;;;;;;;636.05;525.50;;;45.50;20.70;;;;;;5306123;26;20012;-63
2024/04/08 09:49:57;;;;;;;637.72;525.53;;;45.30;20.70;;;;;;5301145;26;20027;-61
2024/04/08 09:52:30;;;;;;;719.22;570.50;;;45.30;20.70;;;;;;5311568;26;20024;-62
2024/04/08 09:54:58;;;;;;;653.15;537.78;;;45.50;20.70;;;;;;5301217;26;20028;-64
2024/04/08 09:57:29;;;;;;;633.63;540.78;;;45.90;20.70;;;;;;5297417;26;20049;-63
2024/04/08 09:59:58;;;;;;;632.15;544.00;;;46.40;20.60;;;;;;5305286;26;20005;-64
2024/04/08 10:02:36;;;;;;;676.63;580.45;;;46.90;20.50;;;;;;5296932;26;20113;-65
2024/04/08 10:05:05;;;;;;;633.97;561.45;;;47.50;20.40;;;;;;5294739;26;20525;-64
2024/04/08 10:07:38;;;;;;;638.72;568.45;;;48.10;20.10;;;;;;5303473;26;20001;-63
2024/04/08 10:10:07;;;;;;;672.67;588.40;;;48.60;20.00;;;;;;5300735;26;20020;-63
2024/04/08 10:12:42;;;;;;;661.28;583.08;;;48.80;19.70;;;;;;5305298;26;20013;-64
2024/04/08 10:15:10;;;;;;;641.50;572.15;;;48.80;19.60;;;;;;5305321;26;20005;-67
2024/04/08 10:17:43;;;;;;;652.53;574.83;;;48.40;19.50;;;;;;5305100;26;20009;-64
2024/04/08 10:20:13;;;;;;;776.80;610.28;;;47.80;19.60;;;;;;5293547;26;20082;-64
2024/04/08 10:22:46;;;;;;;633.88;564.33;;;47.50;19.80;;;;;;5305989;26;20063;-63
2024/04/08 10:25:47;;;;;;;664.53;578.92;;;47.60;19.90;;;;;;5308163;26;20008;-66
2024/04/08 10:28:18;;;;;;;789.60;629.83;;;48.10;19.80;;;;;;5298121;26;20337;-66
2024/04/08 10:30:52;;;;;;;655.40;584.03;;;48.70;19.60;;;;;;5310053;26;20005;-65
2024/04/08 10:41:39;;;;;;;688.33;577.90;;;48.30;19.10;;;;;;5275079;26;20069;-63
2024/04/08 10:44:09;;;;;;;678.67;580.50;;;47.70;19.40;;;;;;5292766;26;20553;-63
2024/04/08 10:46:39;;;;;;;796.45;620.90;;;47.60;19.20;;;;;;5306014;26;20005;-64
2024/04/08 10:49:07;;;;;;;640.20;566.85;;;47.40;19.20;;;;;;5309429;26;20009;-64
2024/04/08 10:51:37;;;;;;;649.40;561.10;;;47.30;19.50;;;;;;5312940;26;19997;-64
2024/04/08 10:54:05;;;;;;;634.35;562.13;;;46.90;19.10;;;;;;5314528;26;20001;-64
2024/04/08 10:56:35;;;;;;;791.40;603.63;;;46.70;19.10;;;;;;5305274;26;20005;-64
2024/04/08 10:59:05;;;;;;;679.65;559.05;;;46.50;19.10;;;;;;5292325;26;20080;-63
2024/04/08 11:01:37;;;;;;;612.53;531.10;;;46.10;18.90;;;;;;5315072;26;20005;-64
2024/04/08 11:04:05;;;;;;;651.92;545.28;;;45.50;19.00;;;;;;5310196;26;20057;-63
2024/04/08 11:06:36;;;;;;;766.60;576.45;;;45.00;19.10;;;;;;5305338;26;20017;-65
2024/04/08 11:09:04;;;;;;;633.65;517.67;;;44.50;19.30;;;;;;5309620;26;20012;-64
2024/04/08 11:11:35;;;;;;;638.08;507.15;;;43.80;19.40;;;;;;5310744;26;20041;-63
2024/04/08 11:14:06;;;;;;;657.00;500.98;;;43.30;19.50;;;;;;5306969;26;20024;-65
2024/04/08 11:16:36;;;;;;;771.10;534.80;;;42.90;19.70;;;;;;5305600;26;20406;-63
2024/04/08 11:19:06;;;;;;;616.38;481.27;;;42.50;19.80;;;;;;5312116;26;20005;-62
2024/04/08 11:21:36;;;;;;;623.83;476.88;;;42.10;19.90;;;;;;5310526;26;20009;-62
2024/04/08 11:24:04;;;;;;;682.10;486.92;;;41.70;20.00;;;;;;5304846;26;20082;-63
2024/04/08 11:26:36;;;;;;;773.60;523.17;;;41.30;20.10;;;;;;5307146;26;20832;-62
2024/04/08 11:29:18;;;;;;;622.05;459.88;;;41.00;20.20;;;;;;5310249;26;20012;-66
2024/04/08 11:31:48;;;;;;;724.70;491.67;;;40.70;20.80;;;;;;5305386;26;20062;-68
2024/04/08 11:34:15;;;;;;;613.08;449.17;;;40.40;20.40;;;;;;5315743;26;20013;-63
2024/04/08 11:36:46;;;;;;;632.97;454.20;;;40.30;20.50;;;;;;5305277;26;20016;-63
2024/04/08 11:39:14;;;;;;;628.60;446.98;;;40.00;20.50;;;;;;5340100;26;20011;-64
2024/04/08 11:41:44;;;;;;;608.75;436.52;;;39.80;20.60;;;;;;5313000;26;20572;-64
2024/04/08 11:44:12;;;;;;;665.17;447.98;;;39.50;20.60;;;;;;5308738;26;20001;-64
2024/04/08 11:46:45;;;;;;;623.95;435.38;;;39.10;20.50;;;;;;5294854;26;20646;-68
2024/04/08 11:49:12;;;;;;;613.40;420.98;;;38.70;20.50;;;;;;5306354;26;20347;-65
2024/04/08 11:51:43;;;;;;;637.35;416.23;;;38.30;20.70;;;;;;5315071;26;20078;-64
2024/04/08 11:54:10;;;;;;;606.15;408.70;;;37.80;20.60;;;;;;5315584;26;20083;-64
2024/04/08 11:56:41;;;;;;;752.42;460.92;;;37.30;20.80;;;;;;5302525;26;20084;-63
2024/04/08 11:59:09;;;;;;;626.38;465.52;;;37.00;20.90;;;;;;5314096;26;20024;-64
2024/04/08 12:01:40;;;;;;;647.65;404.95;;;36.70;21.00;;;;;;5310400;26;20021;-80
2024/04/08 12:04:13;;;;;;;624.03;379.15;;;36.40;21.00;;;;;;5308970;26;20020;-70
2024/04/08 12:06:44;;;;;;;677.50;416.83;;;36.20;20.90;;;;;;5295101;26;20008;-69
2024/04/08 12:09:12;;;;;;;622.05;380.30;;;36.20;20.90;;;;;;5323537;26;20009;-71
2024/04/08 12:11:44;;;;;;;608.72;371.15;;;36.20;20.70;;;;;;5306689;26;20724;-66
2024/04/08 12:14:12;;;;;;;646.50;395.70;;;36.10;20.60;;;;;;5308068;26;20028;-68
2024/04/08 12:16:42;;;;;;;749.17;431.10;;;36.10;20.60;;;;;;5295283;26;20020;-65
2024/04/08 12:19:12;;;;;;;612.00;373.75;;;36.20;20.60;;;;;;5304550;26;20012;-65
2024/04/08 12:21:43;;;;;;;620.05;374.33;;;36.40;20.60;;;;;;5305967;26;20086;-70
2024/04/08 12:24:11;;;;;;;634.85;381.60;;;36.70;20.50;;;;;;5305785;26;20114;-74
2024/04/08 12:26:41;;;;;;;721.65;423.13;;;36.80;20.30;;;;;;5299250;26;20297;-77
2024/04/08 12:29:09;;;;;;;625.20;383.60;;;36.80;20.20;;;;;;5312101;26;20142;-79
2024/04/08 12:31:39;;;;;;;654.40;397.50;;;36.80;20.20;;;;;;5309283;26;20013;-76